Detalii statie INDEPENDENTA [00001985]

Toti senzorii

Date Temperatura solului [C]Precipitatii [mm]Voltaj baterie [mV]Leaf Wetness [Min]HC Air temperature [C]HC Relative humidity [%]Punctul de roua [C]
medieminmaxsumaultimatimpmedieminmaxmediemediemin
2018-08-12 11:00:00 0 7216 28.18 27.19 29.1 0 0 0
2018-08-12 12:00:00 0 7254 29.48 28.36 30.71 0 0 0
2018-08-12 13:00:00 0 7246 31.33 30.17 32.93 0 0 0
2018-08-12 14:00:00 0 7264 30.53 28.86 32.07 0 0 0
2018-08-12 15:00:00 0 7264 31.12 30.47 32.19 0 0 0
2018-08-12 16:00:00 0 7254 30.42 29.41 31.43 0 0 0
2018-08-12 17:00:00 0 7264 30.16 29.72 30.8 0 0 0
2018-08-12 18:00:00 0 7264 29.55 28.95 30.14 0 0 0
2018-08-12 19:00:00 0 7226 27.92 26.24 28.95 0 0 0
2018-08-12 20:00:00 0 6874 24.11 23.28 25.8 0 0 0
2018-08-12 21:00:00 0 6864 22.52 21.84 23.11 0 0 0
2018-08-12 22:00:00 0 6854 20.89 19.78 21.79 0 0 0
2018-08-12 23:00:00 0 6844 19.12 18.51 19.81 0 0 0
2018-08-13 00:00:00 0 6854 18.64 18.39 18.93 0 0 0
2018-08-13 01:00:00 0 6854 18.82 18.48 19.03 0 0 0
2018-08-13 02:00:00 0 6854 17.66 16.3 18.84 0 0 0
2018-08-13 03:00:00 0 6844 15.86 15.07 16.34 0 0 0
2018-08-13 04:00:00 0 6806 14.74 14.23 15.32 0 0 0
2018-08-13 05:00:00 0 6834 14.7 13.99 15.26 9.18 0
2018-08-13 06:00:00 0 6864 15.34 15.16 15.49 0 0 0
2018-08-13 07:00:00 0 6932 17.02 15.65 18.78 0 0 0
2018-08-13 08:00:00 0 6972 20.69 18.99 22.27 0 0 0
2018-08-13 09:00:00 0 7236 23.73 22.65 25.13 0 0 0
2018-08-13 10:00:00 0 7098 26.45 25.27 27.81 0 0 0
2018-08-13 11:00:00 0 7080 28.57 27.73 29.69 0 0 0
2018-08-13 12:00:00 0 7246 29.75 29.04 30.4 0 0 0
2018-08-13 13:00:00 0 7264 30.6 29.98 31.12 0 0 0
2018-08-13 14:00:00 0 7264 31.22 30.74 31.69 0 0 0
2018-08-13 15:00:00 0 7264 32.06 30.74 32.98 0 0 0
2018-08-13 16:00:00 0 7264 32.43 31.89 33.59 0 0 0
2018-08-13 17:00:00 0 7264 32.04 31.13 32.52 0 0 0
2018-08-13 18:00:00 0 7264 31.22 30.54 31.87 0 0 0
2018-08-13 19:00:00 0 7216 29.19 27.55 30.36 0 0 0
2018-08-13 20:00:00 0 6864 25.95 24.53 27.22 0 0 0
2018-08-13 21:00:00 0 6874 22.91 21.78 24.2 0 0 0
2018-08-13 22:00:00 0 6864 20.91 19.81 21.71 0 0 0
2018-08-13 23:00:00 0 6854 18.83 18.45 19.93 0 0 0
2018-08-14 00:00:00 0 6854 17.74 17.22 18.5 0 0 0
2018-08-14 01:00:00 0 6834 16.44 15.91 17.04 0 0 0
2018-08-14 02:00:00 0 6834 15.56 14.95 16.12 0 0 0
2018-08-14 03:00:00 0 6834 14.48 14.15 14.83 0 0 0
2018-08-14 04:00:00 0 6826 13.94 13.21 14.46 0 0 0
2018-08-14 05:00:00 0 6834 12.85 12.47 13.37 0 0 0
2018-08-14 06:00:00 0 6864 13.17 12.62 13.82 0 0 0
2018-08-14 07:00:00 0 6952 15.48 13.07 18.85 0 0 0
2018-08-14 08:00:00 0 6952 21.34 19.51 23.3 0 0 0
2018-08-14 09:00:00 0 7236 24.16 23.38 25.43 0 0 0